Time;durP1;ratioP1;P1;durP2;ratioP2;P2;SDS_P1;SDS_P2;PMS_P1;PMS_P2;Temp;Humidity;BMP_temperature;BMP_pressure;BME280_temperature;BME280_humidity;BME280_pressure;Samples;Min_cycle;Max_cycle;Signal;HPM_P1;HPM_P2
2022/03/03 00:01:52;;;;;;;98.57;41.27;;;0.20;99.90;;;;;;4911387;29;20202;-45
2022/03/03 00:04:17;;;;;;;104.13;39.13;;;0.20;99.90;;;;;;4912861;29;20709;-44
2022/03/03 00:06:43;;;;;;;100.47;41.70;;;0.20;99.90;;;;;;4911366;29;20737;-45
2022/03/03 00:09:08;;;;;;;116.93;42.83;;;0.10;99.90;;;;;;4914034;29;20219;-44
2022/03/03 00:11:34;;;;;;;99.43;40.10;;;0.10;99.90;;;;;;4899673;29;20199;-44
2022/03/03 00:14:00;;;;;;;110.97;45.60;;;0.10;99.90;;;;;;4899447;29;20792;-45
2022/03/03 00:16:26;;;;;;;99.60;40.37;;;0.10;99.90;;;;;;4916304;29;20784;-45
2022/03/03 00:18:52;;;;;;;104.27;40.50;;;0.10;99.90;;;;;;4916180;29;20179;-44
2022/03/03 00:21:18;;;;;;;101.70;39.80;;;0.00;99.90;;;;;;4916337;29;20822;-49
2022/03/03 00:23:43;;;;;;;105.07;43.37;;;-0.10;99.90;;;;;;4915892;29;20781;-56
2022/03/03 00:26:09;;;;;;;107.90;41.13;;;-0.10;99.90;;;;;;4915689;29;20207;-58
2022/03/03 00:28:34;;;;;;;118.63;44.00;;;-0.10;99.90;;;;;;4915875;29;20195;-56
2022/03/03 00:31:00;;;;;;;118.60;43.83;;;-0.10;99.90;;;;;;4912664;29;20217;-56
2022/03/03 00:33:26;;;;;;;134.87;44.07;;;-0.10;99.90;;;;;;4899097;29;20182;-56
2022/03/03 00:35:52;;;;;;;148.17;45.73;;;0.00;99.90;;;;;;4915427;29;20221;-56
2022/03/03 00:38:18;;;;;;;170.27;45.13;;;0.10;1.00;;;;;;4912591;29;20937;-57
2022/03/03 00:40:43;;;;;;;103.00;41.87;;;0.20;1.00;;;;;;4915915;29;20435;-56
2022/03/03 00:43:09;;;;;;;172.13;41.50;;;0.30;99.90;;;;;;4915262;29;20183;-55
2022/03/03 00:45:35;;;;;;;192.67;41.50;;;0.40;1.00;;;;;;4919042;29;20286;-45
2022/03/03 00:48:02;;;;;;;112.00;40.37;;;0.40;99.90;;;;;;4915455;29;20290;-45
2022/03/03 00:50:27;;;;;;;104.97;37.90;;;0.40;1.00;;;;;;4898793;29;20471;-45
2022/03/03 00:52:53;;;;;;;114.77;40.33;;;0.50;99.90;;;;;;4915005;29;20442;-45
2022/03/03 00:55:19;;;;;;;125.87;43.73;;;0.50;99.90;;;;;;4914961;29;20207;-45
2022/03/03 00:57:45;;;;;;;125.70;44.50;;;0.50;1.00;;;;;;4915254;29;20653;-45
2022/03/03 01:00:11;;;;;;;185.10;46.63;;;0.50;1.00;;;;;;4915811;29;20199;-45
2022/03/03 01:02:37;;;;;;;136.37;45.13;;;0.60;99.90;;;;;;4915145;29;20924;-45
2022/03/03 01:05:04;;;;;;;172.37;45.90;;;0.50;1.00;;;;;;4915332;29;20451;-57
2022/03/03 01:07:29;;;;;;;153.63;55.33;;;0.50;1.00;;;;;;4917078;29;20191;-57
2022/03/03 01:09:55;;;;;;;141.53;43.63;;;0.60;99.90;;;;;;4914428;29;20440;-56
2022/03/03 01:12:20;;;;;;;124.67;43.20;;;0.60;1.00;;;;;;4911007;29;20198;-57
2022/03/03 01:14:46;;;;;;;123.40;42.60;;;0.60;34.80;;;;;;4914446;29;20305;-57
2022/03/03 01:17:13;;;;;;;123.80;43.80;;;0.60;99.90;;;;;;4915272;29;20595;-53
2022/03/03 01:19:39;;;;;;;112.43;41.33;;;0.60;99.90;;;;;;4914701;29;20443;-57
2022/03/03 01:22:05;;;;;;;120.17;43.07;;;0.60;99.90;;;;;;4914601;29;20435;-59
2022/03/03 01:24:31;;;;;;;120.80;42.10;;;0.60;99.90;;;;;;4897113;29;20843;-57
2022/03/03 01:26:57;;;;;;;115.00;41.43;;;0.60;99.90;;;;;;4914753;29;20199;-57
2022/03/03 01:29:23;;;;;;;115.87;40.03;;;0.60;99.90;;;;;;4914794;29;20462;-57
2022/03/03 01:31:48;;;;;;;112.73;39.77;;;0.50;99.90;;;;;;4918291;29;20811;-57
2022/03/03 01:34:14;;;;;;;113.63;41.40;;;0.50;99.90;;;;;;4914527;29;20218;-57
2022/03/03 01:36:39;;;;;;;114.90;41.10;;;0.50;99.90;;;;;;4917770;29;20827;-57
2022/03/03 01:39:05;;;;;;;103.07;38.20;;;0.40;99.90;;;;;;4914454;29;20247;-45
2022/03/03 01:41:32;;;;;;;101.87;37.50;;;0.50;99.90;;;;;;4916599;29;20190;-45
2022/03/03 01:43:58;;;;;;;98.27;39.17;;;0.50;99.90;;;;;;4911582;29;20836;-46
2022/03/03 01:46:23;;;;;;;98.00;37.83;;;0.50;99.90;;;;;;4914531;29;20482;-46
2022/03/03 01:48:49;;;;;;;111.43;40.27;;;0.40;99.90;;;;;;4914185;29;20191;-46
2022/03/03 01:51:15;;;;;;;105.23;38.20;;;0.50;99.90;;;;;;4913935;29;20262;-45
2022/03/03 01:53:40;;;;;;;107.80;39.80;;;0.40;1.00;;;;;;4913037;29;20187;-46
2022/03/03 01:56:07;;;;;;;107.57;38.67;;;0.40;1.00;;;;;;4913737;29;20187;-45
2022/03/03 01:58:33;;;;;;;118.93;42.23;;;0.50;1.00;;;;;;4916030;29;20820;-46
2022/03/03 02:00:59;;;;;;;111.60;40.20;;;0.50;1.00;;;;;;4913870;29;20424;-46
2022/03/03 02:03:25;;;;;;;111.70;39.47;;;0.50;1.00;;;;;;4914093;29;20183;-45
2022/03/03 02:05:50;;;;;;;101.20;41.47;;;0.50;1.00;;;;;;4915959;29;20450;-45
2022/03/03 02:08:17;;;;;;;112.83;39.60;;;0.50;1.00;;;;;;4914243;29;20190;-46
2022/03/03 02:10:42;;;;;;;97.50;37.20;;;0.50;1.00;;;;;;4914191;29;20195;-45
2022/03/03 02:13:08;;;;;;;104.63;39.60;;;0.60;1.00;;;;;;4911149;29;20447;-46
2022/03/03 02:15:34;;;;;;;96.43;37.60;;;0.60;1.00;;;;;;4913757;29;20215;-45
2022/03/03 02:18:00;;;;;;;104.47;38.80;;;0.50;1.00;;;;;;4913442;29;20449;-45
2022/03/03 02:20:28;;;;;;;107.80;38.17;;;0.60;1.00;;;;;;4914241;29;20183;-46
2022/03/03 02:22:56;;;;;;;103.93;38.87;;;0.50;1.00;;;;;;4913683;29;20427;-45
2022/03/03 02:25:22;;;;;;;102.13;37.73;;;0.50;1.00;;;;;;4913502;29;20427;-46
2022/03/03 02:27:49;;;;;;;111.57;41.10;;;0.50;1.00;;;;;;4913560;29;20446;-46
2022/03/03 02:30:17;;;;;;;115.03;40.40;;;0.50;1.00;;;;;;4913492;29;20827;-45
2022/03/03 02:32:43;;;;;;;107.37;39.07;;;0.50;1.00;;;;;;4913289;29;20494;-45
2022/03/03 02:35:09;;;;;;;100.97;39.10;;;0.50;1.00;;;;;;4916166;29;20478;-46
2022/03/03 02:37:40;;;;;;;110.10;37.87;;;0.50;1.00;;;;;;4913220;29;20762;-46
2022/03/03 02:40:09;;;;;;;103.97;35.20;;;0.60;1.00;;;;;;4911239;29;20592;-45
2022/03/03 02:42:35;;;;;;;98.93;37.17;;;0.50;1.00;;;;;;4913382;29;20423;-45
2022/03/03 02:45:03;;;;;;;98.47;35.33;;;0.60;1.00;;;;;;4913174;29;20494;-45
2022/03/03 02:47:29;;;;;;;135.77;39.20;;;0.50;1.00;;;;;;4912635;29;20663;-46
2022/03/03 02:49:55;;;;;;;104.07;37.27;;;0.50;1.00;;;;;;4914499;29;20770;-45
2022/03/03 02:52:20;;;;;;;108.20;39.23;;;0.40;1.00;;;;;;4914336;29;20548;-46
2022/03/03 02:54:46;;;;;;;111.80;37.67;;;0.50;1.00;;;;;;4914666;29;20305;-45
2022/03/03 02:59:56;;;;;;;106.63;37.40;;;0.40;1.00;;;;;;4912532;29;20218;-46
2022/03/03 03:02:21;;;;;;;242.50;41.23;;;0.40;1.00;;;;;;4916930;29;20861;-46
2022/03/03 03:04:47;;;;;;;102.90;36.57;;;0.40;1.00;;;;;;4913201;29;20594;-46
2022/03/03 03:07:12;;;;;;;104.70;36.87;;;0.50;1.00;;;;;;4915935;29;20387;-45
2022/03/03 03:09:38;;;;;;;127.27;38.03;;;0.40;1.00;;;;;;4913160;29;20187;-45
2022/03/03 03:12:03;;;;;;;143.03;40.67;;;0.40;1.00;;;;;;4915328;29;20187;-45
2022/03/03 03:14:29;;;;;;;119.60;38.97;;;0.40;1.00;;;;;;4913246;29;20210;-45
2022/03/03 03:16:55;;;;;;;107.17;37.53;;;0.40;1.00;;;;;;4914755;29;20218;-46
2022/03/03 03:19:21;;;;;;;103.20;38.37;;;0.40;1.00;;;;;;4913970;29;20203;-46
2022/03/03 03:21:46;;;;;;;95.47;36.60;;;0.40;1.00;;;;;;4912806;29;20692;-45
2022/03/03 03:24:12;;;;;;;107.27;37.77;;;0.40;1.00;;;;;;4912112;29;20442;-46
2022/03/03 03:26:37;;;;;;;99.07;35.50;;;0.40;1.00;;;;;;4913105;29;20190;-45
2022/03/03 03:29:03;;;;;;;101.60;38.10;;;0.40;1.00;;;;;;4895459;29;20263;-45
2022/03/03 03:31:29;;;;;;;93.93;36.40;;;0.40;7.90;;;;;;4895414;29;20198;-45
2022/03/03 03:33:54;;;;;;;96.70;34.50;;;0.40;27.00;;;;;;4912872;29;20435;-46
2022/03/03 03:36:20;;;;;;;100.93;34.67;;;0.50;38.30;;;;;;4912540;29;20438;-46
2022/03/03 03:38:45;;;;;;;77.30;33.40;;;0.40;37.20;;;;;;4913222;29;20247;-45
2022/03/03 03:41:12;;;;;;;88.40;32.43;;;0.40;22.20;;;;;;4912975;29;20620;-45
2022/03/03 03:43:38;;;;;;;88.53;34.77;;;0.30;12.90;;;;;;4916605;29;20262;-45
2022/03/03 03:46:03;;;;;;;101.63;34.30;;;0.40;16.20;;;;;;4915925;29;20514;-45
2022/03/03 03:48:29;;;;;;;101.97;36.77;;;0.30;2.80;;;;;;4916638;29;20187;-45
2022/03/03 03:50:55;;;;;;;98.77;32.87;;;0.30;1.00;;;;;;4916578;29;20187;-46
2022/03/03 03:53:20;;;;;;;92.23;34.73;;;0.30;1.00;;;;;;4918990;29;20211;-46
2022/03/03 03:55:46;;;;;;;91.83;34.27;;;0.40;1.00;;;;;;4917889;29;20215;-45
2022/03/03 03:58:12;;;;;;;109.03;35.43;;;0.30;1.00;;;;;;4917110;29;20194;-45
2022/03/03 04:00:38;;;;;;;93.20;36.17;;;0.30;1.00;;;;;;4915898;29;20199;-46
2022/03/03 04:03:03;;;;;;;87.67;33.50;;;0.30;1.00;;;;;;4916341;29;20465;-45
2022/03/03 04:05:29;;;;;;;91.77;32.93;;;0.30;1.00;;;;;;4915939;29;20621;-46
2022/03/03 04:07:55;;;;;;;87.60;32.20;;;0.30;1.00;;;;;;4915903;29;20195;-45
2022/03/03 04:10:20;;;;;;;91.37;32.80;;;0.30;1.00;;;;;;4916160;29;20191;-46
2022/03/03 04:12:46;;;;;;;88.93;32.47;;;0.30;1.00;;;;;;4915398;29;20549;-46
2022/03/03 04:15:11;;;;;;;82.70;30.83;;;0.30;1.00;;;;;;4912058;29;20214;-46
2022/03/03 04:17:37;;;;;;;88.67;33.93;;;0.30;1.00;;;;;;4916044;29;20194;-46
2022/03/03 04:20:04;;;;;;;87.20;30.67;;;0.20;1.00;;;;;;4915374;29;20215;-46
2022/03/03 04:22:30;;;;;;;91.53;29.60;;;0.20;1.00;;;;;;4919227;29;20194;-46
2022/03/03 04:24:55;;;;;;;82.80;29.60;;;0.20;1.00;;;;;;4914696;29;20430;-45
2022/03/03 04:27:21;;;;;;;95.97;31.43;;;0.10;1.00;;;;;;4916003;29;20179;-45
2022/03/03 04:29:47;;;;;;;87.50;31.03;;;0.20;1.00;;;;;;4915603;29;20194;-45
2022/03/03 04:32:13;;;;;;;78.47;29.87;;;0.20;1.00;;;;;;4918589;29;20267;-46
2022/03/03 04:34:39;;;;;;;87.40;30.90;;;0.20;1.00;;;;;;4915671;29;20215;-45
2022/03/03 04:37:04;;;;;;;85.77;29.87;;;0.20;1.00;;;;;;4915932;29;20186;-45
2022/03/03 04:39:30;;;;;;;86.10;30.33;;;0.10;1.00;;;;;;4915919;29;20427;-45
2022/03/03 04:41:57;;;;;;;75.10;27.77;;;0.10;1.00;;;;;;4914486;29;20183;-45
2022/03/03 04:44:22;;;;;;;72.67;26.73;;;0.10;1.00;;;;;;4915427;29;20453;-45
2022/03/03 04:46:48;;;;;;;83.90;29.90;;;0.10;1.00;;;;;;4916024;29;20912;-45
2022/03/03 04:49:13;;;;;;;83.03;29.13;;;0.10;1.00;;;;;;4915405;29;20183;-45
2022/03/03 04:51:40;;;;;;;83.87;28.77;;;0.10;1.00;;;;;;4915955;29;20210;-45
2022/03/03 04:54:07;;;;;;;78.33;29.30;;;0.10;1.00;;;;;;4915004;29;20241;-45
2022/03/03 04:56:32;;;;;;;81.40;29.20;;;0.10;14.10;;;;;;4911930;29;20420;-46
2022/03/03 04:58:58;;;;;;;71.30;27.80;;;0.20;20.90;;;;;;4917548;29;20431;-46
2022/03/03 05:01:24;;;;;;;80.33;28.67;;;0.10;19.40;;;;;;4914765;29;20211;-46
2022/03/03 05:03:49;;;;;;;71.83;28.87;;;0.10;14.30;;;;;;4917910;29;20216;-45
2022/03/03 05:06:17;;;;;;;75.07;28.10;;;0.20;13.30;;;;;;4914501;29;20179;-45
2022/03/03 05:08:43;;;;;;;82.57;28.30;;;0.20;5.80;;;;;;4916892;29;20183;-46
2022/03/03 05:11:08;;;;;;;74.93;28.10;;;0.10;1.00;;;;;;4916860;29;20445;-45
2022/03/03 05:13:34;;;;;;;101.13;29.13;;;0.10;1.00;;;;;;4919157;29;20625;-46
2022/03/03 05:16:00;;;;;;;71.67;26.27;;;0.10;1.00;;;;;;4895648;29;20555;-45
2022/03/03 05:18:26;;;;;;;72.67;27.70;;;0.10;1.00;;;;;;4918553;29;20431;-45
2022/03/03 05:20:52;;;;;;;76.53;23.90;;;0.00;1.00;;;;;;4897961;29;20198;-45
2022/03/03 05:23:17;;;;;;;80.37;25.40;;;0.00;1.00;;;;;;4916902;29;20171;-45
2022/03/03 05:25:43;;;;;;;69.80;25.17;;;-0.10;1.00;;;;;;4915581;29;20843;-45
2022/03/03 05:28:09;;;;;;;63.00;23.77;;;-0.10;1.00;;;;;;4914986;29;20175;-45
2022/03/03 05:30:34;;;;;;;111.63;25.53;;;-0.10;1.00;;;;;;4914696;29;20199;-45
2022/03/03 05:33:00;;;;;;;66.03;24.23;;;-0.20;99.90;;;;;;4918336;29;20179;-45
2022/03/03 05:35:25;;;;;;;71.03;25.53;;;-0.20;99.90;;;;;;4914821;29;20247;-45
2022/03/03 05:37:51;;;;;;;80.97;27.20;;;-0.20;99.90;;;;;;4918064;29;20214;-45
2022/03/03 05:40:17;;;;;;;69.13;26.27;;;-0.10;99.90;;;;;;4914739;29;21908;-46
2022/03/03 05:42:43;;;;;;;81.57;28.20;;;-0.10;1.00;;;;;;4916811;29;20191;-45
2022/03/03 05:45:09;;;;;;;88.83;28.67;;;-0.10;1.00;;;;;;4912482;29;20479;-45
2022/03/03 05:47:35;;;;;;;87.47;29.10;;;-0.10;1.00;;;;;;4913147;29;21036;-45
2022/03/03 05:50:03;;;;;;;97.20;28.57;;;0.00;1.00;;;;;;4914519;29;20435;-45
2022/03/03 05:52:28;;;;;;;134.30;28.90;;;0.00;1.00;;;;;;4915529;29;20423;-45
2022/03/03 05:54:55;;;;;;;122.97;31.83;;;0.00;1.00;;;;;;4913766;29;20478;-45
2022/03/03 05:57:32;;;;;;;77.43;26.83;;;0.00;99.90;;;;;;4914434;29;20262;-45
2022/03/03 06:00:03;;;;;;;66.50;25.07;;;-0.10;99.90;;;;;;4911751;29;20443;-45
2022/03/03 06:02:29;;;;;;;77.70;27.70;;;-0.10;99.90;;;;;;4915218;29;20611;-45
2022/03/03 06:04:56;;;;;;;93.17;25.10;;;-0.10;99.90;;;;;;4915116;29;20435;-45
2022/03/03 06:07:25;;;;;;;83.27;26.70;;;-0.20;99.90;;;;;;4914218;29;20764;-45
2022/03/03 06:09:56;;;;;;;84.47;24.83;;;-0.20;92.00;;;;;;4915372;29;20439;-45
2022/03/03 06:12:45;;;;;;;66.57;24.93;;;-0.20;99.90;;;;;;4900323;29;20443;-45
2022/03/03 06:15:13;;;;;;;96.57;27.63;;;-0.20;99.90;;;;;;4910852;29;20525;-46
2022/03/03 06:17:41;;;;;;;82.67;27.67;;;-0.20;99.90;;;;;;4915821;29;20434;-46
2022/03/03 06:20:07;;;;;;;83.10;27.40;;;-0.20;99.90;;;;;;4910842;29;20450;-45
2022/03/03 06:22:33;;;;;;;65.07;25.60;;;-0.20;99.90;;;;;;4913633;29;20479;-45
2022/03/03 06:24:59;;;;;;;78.67;27.10;;;-0.10;1.00;;;;;;4913702;29;20940;-45
2022/03/03 06:27:24;;;;;;;141.63;28.30;;;-0.10;1.00;;;;;;4913554;29;20307;-45
2022/03/03 06:29:50;;;;;;;78.73;28.53;;;-0.10;1.00;;;;;;4914632;29;20184;-47
2022/03/03 06:32:16;;;;;;;100.57;30.37;;;-0.10;1.00;;;;;;4912543;29;20271;-45
2022/03/03 06:34:41;;;;;;;89.90;27.00;;;0.00;1.00;;;;;;4913616;29;20463;-45
2022/03/03 06:37:07;;;;;;;65.60;25.93;;;0.00;1.00;;;;;;4913022;29;20649;-45
2022/03/03 06:39:33;;;;;;;64.50;25.17;;;0.10;1.00;;;;;;4912223;29;20650;-45
2022/03/03 06:41:59;;;;;;;62.33;23.90;;;0.00;1.00;;;;;;4911993;29;20254;-45
2022/03/03 06:44:24;;;;;;;56.93;23.00;;;0.00;99.90;;;;;;4912725;29;20439;-46
2022/03/03 06:46:50;;;;;;;65.57;24.90;;;0.00;99.90;;;;;;4912349;29;20266;-45
2022/03/03 06:49:16;;;;;;;81.73;24.80;;;-0.10;99.90;;;;;;4892450;29;20199;-45
2022/03/03 06:51:49;;;;;;;81.10;26.40;;;-0.10;63.10;;;;;;4913887;29;20187;-45
2022/03/03 06:54:20;;;;;;;89.93;26.40;;;-0.10;25.30;;;;;;4913284;29;20230;-45
2022/03/03 06:56:56;;;;;;;77.70;25.97;;;-0.10;99.90;;;;;;4912940;29;20455;-45
2022/03/03 06:59:25;;;;;;;70.83;22.80;;;-0.10;99.90;;;;;;4913173;29;20434;-45
2022/03/03 07:01:52;;;;;;;71.07;24.67;;;-0.10;99.90;;;;;;4913231;29;20437;-45
2022/03/03 07:04:19;;;;;;;70.80;24.13;;;0.00;99.90;;;;;;4912831;29;20439;-45
2022/03/03 07:06:46;;;;;;;64.63;23.53;;;0.10;1.00;;;;;;4912332;29;20427;-45
2022/03/03 07:09:12;;;;;;;57.97;23.93;;;0.10;1.00;;;;;;4912052;29;20793;-54
2022/03/03 07:11:39;;;;;;;57.33;22.13;;;0.10;99.90;;;;;;4912209;29;20514;-45
2022/03/03 07:14:05;;;;;;;49.87;20.63;;;0.10;99.90;;;;;;4910065;29;20439;-45
2022/03/03 07:16:49;;;;;;;63.60;22.87;;;0.10;99.90;;;;;;4913251;29;20521;-45
2022/03/03 07:19:21;;;;;;;48.13;20.07;;;0.10;76.70;;;;;;4908653;29;20459;-45
2022/03/03 07:22:01;;;;;;;45.90;19.00;;;0.20;76.10;;;;;;4912260;29;20522;-45
2022/03/03 07:24:30;;;;;;;43.43;18.80;;;0.10;1.00;;;;;;4912379;29;20431;-45
2022/03/03 07:26:59;;;;;;;39.50;16.23;;;0.20;59.10;;;;;;4907976;29;20926;-45
2022/03/03 07:29:29;;;;;;;51.80;18.40;;;0.10;1.00;;;;;;4910373;29;20571;-45
2022/03/03 07:31:57;;;;;;;45.13;18.23;;;0.10;1.00;;;;;;4912837;29;20509;-46
2022/03/03 07:34:31;;;;;;;47.27;18.77;;;0.10;1.00;;;;;;4912937;29;20467;-45
2022/03/03 07:37:02;;;;;;;42.20;19.10;;;0.10;1.00;;;;;;4915133;29;20466;-45
2022/03/03 07:39:44;;;;;;;53.73;20.37;;;0.10;99.90;;;;;;4912721;29;20431;-45
2022/03/03 07:42:17;;;;;;;44.03;18.37;;;0.20;1.00;;;;;;4912525;29;20906;-45
2022/03/03 07:44:43;;;;;;;52.53;20.53;;;0.20;99.90;;;;;;4912659;29;20514;-45
2022/03/03 07:47:10;;;;;;;38.70;16.83;;;0.20;99.90;;;;;;4895955;29;20442;-45
2022/03/03 07:49:36;;;;;;;49.70;19.50;;;0.30;99.90;;;;;;4912853;29;20435;-45
2022/03/03 07:52:03;;;;;;;39.43;17.70;;;0.40;1.00;;;;;;4910581;29;20439;-45
2022/03/03 07:54:29;;;;;;;43.90;17.10;;;0.40;99.90;;;;;;4911674;29;20467;-45
2022/03/03 07:56:56;;;;;;;44.83;17.47;;;0.50;68.30;;;;;;4914243;29;20437;-45
2022/03/03 07:59:27;;;;;;;48.20;18.30;;;0.50;1.00;;;;;;4918403;29;20177;-45
2022/03/03 08:01:56;;;;;;;44.33;19.27;;;0.60;81.10;;;;;;4911895;29;20431;-45
2022/03/03 08:04:30;;;;;;;41.80;17.73;;;0.70;99.90;;;;;;4914298;29;20506;-45
2022/03/03 08:07:07;;;;;;;44.63;18.30;;;0.80;48.30;;;;;;4912534;29;20448;-45
2022/03/03 08:09:33;;;;;;;44.97;17.37;;;0.90;47.50;;;;;;4912279;29;21286;-45
2022/03/03 08:12:05;;;;;;;41.23;16.40;;;0.90;99.90;;;;;;4911846;29;20528;-46
2022/03/03 08:14:32;;;;;;;42.93;16.90;;;1.10;99.90;;;;;;4910082;29;20470;-45
2022/03/03 08:16:58;;;;;;;45.97;16.37;;;1.20;1.00;;;;;;4909954;29;20514;-48
2022/03/03 08:19:24;;;;;;;41.10;16.07;;;1.20;1.00;;;;;;4912495;29;20901;-45
2022/03/03 08:21:50;;;;;;;38.97;14.63;;;1.30;99.90;;;;;;4911871;29;20622;-45
2022/03/03 08:24:16;;;;;;;35.40;14.87;;;1.30;99.90;;;;;;4908008;29;20491;-45
2022/03/03 08:26:43;;;;;;;47.53;15.37;;;1.40;99.90;;;;;;4913034;29;20243;-45
2022/03/03 08:29:09;;;;;;;43.27;15.70;;;1.50;1.00;;;;;;4912517;29;20435;-46
2022/03/03 08:31:47;;;;;;;37.00;14.93;;;1.60;1.00;;;;;;4915949;29;20506;-45
2022/03/03 08:34:24;;;;;;;42.57;16.10;;;1.60;99.90;;;;;;4909923;29;20470;-46
2022/03/03 08:37:00;;;;;;;33.87;14.70;;;1.70;51.60;;;;;;4911579;29;20430;-46
2022/03/03 08:39:28;;;;;;;34.47;14.13;;;1.80;6.70;;;;;;4914531;29;20521;-45
2022/03/03 08:42:00;;;;;;;31.70;14.33;;;1.90;45.50;;;;;;4909411;29;20444;-46
2022/03/03 08:44:38;;;;;;;37.77;15.10;;;1.90;1.00;;;;;;4912304;29;20443;-45
2022/03/03 08:47:06;;;;;;;34.10;14.73;;;1.90;1.00;;;;;;4915624;29;20448;-45
2022/03/03 08:49:40;;;;;;;32.20;12.43;;;1.90;1.00;;;;;;4915539;29;20435;-45
2022/03/03 08:52:07;;;;;;;26.83;12.33;;;1.90;1.00;;;;;;4916595;29;20414;-45
2022/03/03 08:54:33;;;;;;;34.20;11.80;;;1.90;1.00;;;;;;4916236;29;20530;-45
2022/03/03 08:56:59;;;;;;;33.73;11.67;;;1.90;1.00;;;;;;4916495;29;20460;-45
2022/03/03 08:59:25;;;;;;;22.23;11.10;;;2.00;1.00;;;;;;4899830;29;20447;-45
2022/03/03 09:01:51;;;;;;;29.30;12.40;;;2.10;1.00;;;;;;4899329;29;20238;-45
2022/03/03 09:04:18;;;;;;;32.90;13.53;;;2.20;99.90;;;;;;4929424;29;20190;-46
2022/03/03 09:06:44;;;;;;;29.80;12.17;;;2.20;99.90;;;;;;4935326;29;20741;-45
2022/03/03 09:09:11;;;;;;;29.83;12.90;;;2.20;99.90;;;;;;4935148;29;20442;-45
2022/03/03 09:11:37;;;;;;;30.77;13.23;;;2.20;99.90;;;;;;4935307;29;20865;-45
2022/03/03 09:14:02;;;;;;;31.33;13.50;;;2.30;99.90;;;;;;4935494;29;20414;-45
2022/03/03 09:16:28;;;;;;;29.13;13.10;;;2.30;99.90;;;;;;4935505;29;20434;-46
2022/03/03 09:18:54;;;;;;;24.77;12.50;;;2.40;99.90;;;;;;4935281;29;20178;-46
2022/03/03 09:21:20;;;;;;;34.73;13.43;;;2.50;99.90;;;;;;4934812;29;20652;-45
2022/03/03 09:23:45;;;;;;;31.07;12.87;;;2.40;99.90;;;;;;4934808;29;20179;-46
2022/03/03 09:26:11;;;;;;;27.20;11.50;;;2.50;99.90;;;;;;4917812;29;20537;-46
2022/03/03 09:28:37;;;;;;;24.83;11.13;;;2.60;99.90;;;;;;4935016;29;20170;-45
2022/03/03 09:31:03;;;;;;;22.53;10.90;;;2.60;99.90;;;;;;4934853;29;20194;-46
2022/03/03 09:33:28;;;;;;;28.13;11.00;;;2.70;99.90;;;;;;4934976;29;20447;-45
2022/03/03 09:35:54;;;;;;;20.83;10.07;;;2.80;99.90;;;;;;4934500;29;20221;-45
2022/03/03 09:38:20;;;;;;;21.83;10.53;;;2.90;98.90;;;;;;4934907;29;20219;-46
2022/03/03 09:40:48;;;;;;;24.77;11.83;;;2.90;67.10;;;;;;4934995;29;20289;-46
2022/03/03 09:43:14;;;;;;;21.53;10.43;;;2.70;1.00;;;;;;4934227;29;20434;-46
2022/03/03 09:45:39;;;;;;;26.40;12.00;;;2.70;31.10;;;;;;4934560;29;20489;-45
2022/03/03 09:48:07;;;;;;;18.70;9.83;;;2.70;87.60;;;;;;4934526;29;20442;-46
2022/03/03 09:50:35;;;;;;;23.53;10.67;;;2.80;59.70;;;;;;4934585;29;20174;-46
2022/03/03 09:53:06;;;;;;;20.40;10.70;;;2.90;1.00;;;;;;4934736;29;20435;-46
2022/03/03 09:55:31;;;;;;;23.87;11.60;;;2.90;1.00;;;;;;4934331;29;20457;-46
2022/03/03 09:57:57;;;;;;;20.70;11.50;;;2.90;1.00;;;;;;4934379;29;20783;-46
2022/03/03 10:00:22;;;;;;;25.70;11.80;;;2.90;41.90;;;;;;4917031;29;20295;-46
2022/03/03 10:03:08;;;;;;;21.40;10.33;;;2.90;1.00;;;;;;4928235;29;20206;-46
2022/03/03 10:05:38;;;;;;;21.83;10.40;;;2.90;1.00;;;;;;4915394;29;20679;-46
2022/03/03 10:08:07;;;;;;;20.37;11.47;;;2.90;1.00;;;;;;4921671;29;20429;-45
2022/03/03 10:10:35;;;;;;;20.80;10.10;;;2.70;1.00;;;;;;4934208;29;20441;-46
2022/03/03 10:13:01;;;;;;;20.33;11.00;;;2.70;1.00;;;;;;4934094;29;20413;-45
2022/03/03 10:15:28;;;;;;;21.77;9.97;;;2.70;1.00;;;;;;4928468;29;20470;-45
2022/03/03 10:18:18;;;;;;;20.77;9.93;;;2.70;98.70;;;;;;4911278;29;20191;-45
2022/03/03 10:20:54;;;;;;;16.47;9.20;;;2.80;77.90;;;;;;4914161;29;21030;-46
2022/03/03 10:23:28;;;;;;;21.00;10.67;;;2.90;95.10;;;;;;4914874;29;20874;-45
2022/03/03 10:25:56;;;;;;;18.03;9.17;;;3.00;52.00;;;;;;4915229;29;20834;-47
2022/03/03 10:28:25;;;;;;;20.93;10.47;;;3.10;19.80;;;;;;4915059;29;20415;-46
2022/03/03 10:31:13;;;;;;;24.77;10.67;;;3.30;20.40;;;;;;4914743;29;20498;-45
2022/03/03 10:33:45;;;;;;;19.87;10.37;;;3.30;1.00;;;;;;4914806;29;20418;-46
2022/03/03 10:36:14;;;;;;;23.30;10.10;;;3.30;1.00;;;;;;4897561;29;20478;-46
2022/03/03 10:38:51;;;;;;;19.83;10.00;;;3.30;1.00;;;;;;4915318;29;20455;-45
2022/03/03 10:41:53;;;;;;;21.27;10.73;;;3.30;1.00;;;;;;4914878;29;21057;-46
2022/03/03 10:44:28;;;;;;;23.47;10.80;;;3.40;1.00;;;;;;4865339;29;20460;-45
2022/03/03 10:47:09;;;;;;;18.73;10.60;;;3.40;1.00;;;;;;4895670;29;20435;-46
2022/03/03 10:49:44;;;;;;;18.63;9.13;;;3.40;1.00;;;;;;4895484;29;20488;-46
2022/03/03 10:52:44;;;;;;;18.00;9.93;;;3.40;1.00;;;;;;4895703;29;20410;-46
2022/03/03 10:55:15;;;;;;;17.10;8.90;;;3.40;1.00;;;;;;4854261;29;20498;-46
2022/03/03 10:57:51;;;;;;;20.70;9.40;;;3.70;1.00;;;;;;4895654;29;20423;-45
2022/03/03 11:00:25;;;;;;;14.97;8.43;;;3.80;1.00;;;;;;4895680;29;20775;-45
2022/03/03 11:03:04;;;;;;;16.33;8.90;;;3.90;1.00;;;;;;4912121;29;20445;-46
2022/03/03 11:05:30;;;;;;;15.80;8.87;;;4.00;1.00;;;;;;4931820;29;20508;-45
2022/03/03 11:07:57;;;;;;;17.70;8.93;;;4.10;1.00;;;;;;4933355;29;20411;-46
2022/03/03 11:10:25;;;;;;;17.33;9.23;;;4.30;1.00;;;;;;4933057;29;20434;-46
2022/03/03 11:12:51;;;;;;;15.83;8.07;;;4.50;1.00;;;;;;4933160;29;20490;-45
2022/03/03 11:15:19;;;;;;;14.77;8.17;;;4.60;1.00;;;;;;4933092;29;20473;-45
2022/03/03 11:17:45;;;;;;;13.80;7.83;;;4.80;1.00;;;;;;4933260;29;20189;-45
2022/03/03 11:20:14;;;;;;;28.80;15.90;;;5.00;1.00;;;;;;4932910;29;20414;-46
2022/03/03 11:22:41;;;;;;;15.50;9.40;;;5.10;1.00;;;;;;4932944;29;20509;-46
2022/03/03 11:25:13;;;;;;;13.20;7.43;;;5.20;1.00;;;;;;4932804;29;20419;-46
2022/03/03 11:27:41;;;;;;;15.77;8.50;;;4.90;1.00;;;;;;4933030;29;20426;-45
2022/03/03 11:30:14;;;;;;;17.10;8.60;;;4.90;1.00;;;;;;4932792;29;20423;-45
2022/03/03 11:32:40;;;;;;;13.70;8.00;;;5.70;1.00;;;;;;4932904;29;20433;-46
2022/03/03 11:35:08;;;;;;;13.90;7.70;;;6.80;1.00;;;;;;4932861;29;20955;-46
2022/03/03 11:37:39;;;;;;;12.93;7.13;;;8.00;1.00;;;;;;4932891;29;20194;-46
2022/03/03 11:40:05;;;;;;;11.10;5.87;;;9.20;99.90;;;;;;4933015;29;20413;-46
2022/03/03 11:42:34;;;;;;;11.17;7.20;;;9.00;99.90;;;;;;4933254;29;20501;-46
2022/03/03 11:45:06;;;;;;;15.07;7.23;;;8.30;99.90;;;;;;4932831;29;20983;-46
2022/03/03 11:47:34;;;;;;;12.13;6.50;;;7.40;99.90;;;;;;4932645;29;20924;-46
2022/03/03 11:50:14;;;;;;;12.97;7.03;;;7.10;99.90;;;;;;4933146;29;20517;-46
2022/03/03 11:52:41;;;;;;;14.10;7.87;;;6.90;99.90;;;;;;4933276;29;20411;-46
2022/03/03 11:55:25;;;;;;;13.20;6.90;;;6.90;99.90;;;;;;4932888;29;20466;-46
2022/03/03 11:57:58;;;;;;;12.30;7.33;;;7.10;99.90;;;;;;4932641;29;20510;-47
2022/03/03 12:00:24;;;;;;;11.23;7.00;;;7.40;99.90;;;;;;4932887;29;20825;-47
2022/03/03 12:03:01;;;;;;;17.03;7.07;;;7.90;99.90;;;;;;4922230;29;20463;-46
2022/03/03 12:05:27;;;;;;;13.70;6.53;;;9.50;99.90;;;;;;4915633;29;20198;-46
2022/03/03 12:07:56;;;;;;;10.73;6.60;;;11.00;99.90;;;;;;4917571;29;21021;-46
2022/03/03 12:10:22;;;;;;;10.87;6.47;;;12.50;99.90;;;;;;4917581;29;20179;-46
2022/03/03 12:12:48;;;;;;;10.57;6.60;;;13.60;99.90;;;;;;4917344;29;20494;-47
2022/03/03 12:15:14;;;;;;;11.83;7.07;;;14.20;99.90;;;;;;4917236;29;20474;-47
2022/03/03 12:17:44;;;;;;;10.40;6.77;;;14.40;99.90;;;;;;4910877;29;20446;-46
2022/03/03 12:20:32;;;;;;;18.03;6.97;;;15.20;99.90;;;;;;4916700;29;20641;-47
2022/03/03 12:23:13;;;;;;;9.50;6.50;;;16.00;99.90;;;;;;4917398;29;20867;-47
2022/03/03 12:25:51;;;;;;;10.77;6.10;;;16.50;99.90;;;;;;4908307;29;20454;-52
2022/03/03 12:28:24;;;;;;;9.60;6.13;;;16.00;99.90;;;;;;4917054;29;20890;-48
2022/03/03 12:30:51;;;;;;;13.67;6.47;;;14.70;99.90;;;;;;4917310;29;20514;-47
2022/03/03 12:33:26;;;;;;;8.80;5.90;;;13.40;99.90;;;;;;4916883;29;20463;-47
2022/03/03 12:36:04;;;;;;;12.70;6.30;;;12.10;99.90;;;;;;4916954;29;20518;-46
2022/03/03 12:38:32;;;;;;;11.50;7.40;;;10.90;99.90;;;;;;4916778;29;21342;-46
2022/03/03 12:40:58;;;;;;;12.67;6.27;;;10.90;99.90;;;;;;4916330;29;20816;-47
2022/03/03 12:43:24;;;;;;;10.50;6.47;;;11.20;99.90;;;;;;4916383;29;20442;-47
2022/03/03 12:45:49;;;;;;;10.83;6.67;;;12.70;99.90;;;;;;4916438;29;20242;-47